Time,TemperatureF,DewpointF,PressureIn,WindDirection,WindDirectionDegrees,WindSpeedMPH,WindSpeedGustMPH,Humidity,HourlyPrecipIn,Conditions,Clouds,dailyrainin,SoftwareType,DateUTC
2013-07-28 00:02:00,57.0,53.0,-100.00,SE,135,12.0,18.0,86,-99.99,,,-99.99,,2013-07-28 00:02:00,
2013-07-28 00:12:00,57.0,52.0,-100.00,SSE,155,14.0,21.0,84,-99.99,,,-99.99,,2013-07-28 00:12:00,
2013-07-28 00:32:00,55.0,52.0,-100.00,SE,145,12.0,17.0,87,-99.99,,,-99.99,,2013-07-28 00:32:00,
2013-07-28 00:44:00,55.0,51.0,-100.00,SSE,150,7.0,13.0,87,-99.99,,,-99.99,,2013-07-28 00:44:00,
2013-07-28 01:12:00,55.0,51.0,-100.00,ESE,120,6.0,9.0,86,-99.99,,,-99.99,,2013-07-28 01:12:00,
2013-07-28 01:43:00,55.0,51.0,-100.00,NE,45,14.0,20.0,84,-99.99,,,-99.99,,2013-07-28 01:43:00,
2013-07-28 02:02:00,54.0,52.0,-100.00,NE,40,12.0,17.0,94,-99.99,,,-99.99,,2013-07-28 02:02:00,
2013-07-28 02:42:00,52.0,49.0,-100.00,NE,40,11.0,14.0,89,-99.99,,,-99.99,,2013-07-28 02:42:00,
2013-07-28 03:02:00,51.0,47.0,-100.00,NNE,20,12.0,15.0,86,-99.99,,,-99.99,,2013-07-28 03:02:00,
2013-07-28 03:42:00,51.0,47.0,-100.00,NNE,30,12.0,16.0,86,-99.99,,,-99.99,,2013-07-28 03:42:00,
2013-07-28 04:32:00,51.0,45.0,-100.00,NNE,25,9.0,12.0,79,-99.99,,,-99.99,,2013-07-28 04:32:00,
2013-07-28 04:43:00,51.0,45.0,-100.00,NNE,25,7.0,10.0,78,-99.99,,,-99.99,,2013-07-28 04:43:00,
2013-07-28 05:02:00,52.0,44.0,-100.00,NE,40,7.0,11.0,72,-99.99,,,-99.99,,2013-07-28 05:02:00,
2013-07-28 05:12:00,53.0,43.0,-100.00,NE,40,8.0,10.0,70,-99.99,,,-99.99,,2013-07-28 05:12:00,
2013-07-28 05:43:00,52.0,45.0,-100.00,ENE,75,6.0,10.0,78,-99.99,,,-99.99,,2013-07-28 05:43:00,
2013-07-28 05:52:00,51.0,46.0,-100.00,ENE,75,8.0,10.0,82,-99.99,,,-99.99,,2013-07-28 05:52:00,
2013-07-28 06:02:00,50.0,47.0,-100.00,ENE,75,7.0,11.0,86,-99.99,,,-99.99,,2013-07-28 06:02:00,
2013-07-28 06:12:00,50.0,47.0,-100.00,SE,125,4.0,7.0,91,-99.99,,,-99.99,,2013-07-28 06:12:00,
2013-07-28 06:32:00,49.0,48.0,-100.00,ESE,120,6.0,8.0,98,-99.99,,,-99.99,,2013-07-28 06:32:00,
2013-07-28 06:42:00,48.0,48.0,-100.00,SE,125,4.0,7.0,99,-99.99,,,-99.99,,2013-07-28 06:42:00,
2013-07-28 06:52:00,48.0,48.0,-100.00,ESE,115,6.0,7.0,99,-99.99,,,-99.99,,2013-07-28 06:52:00,
2013-07-28 07:02:00,49.0,49.0,-100.00,East,95,6.0,7.0,99,-99.99,,,-99.99,,2013-07-28 07:02:00,
2013-07-28 07:12:00,49.0,49.0,-100.00,ESE,120,6.0,7.0,99,-99.99,,,-99.99,,2013-07-28 07:12:00,
2013-07-28 07:43:00,49.0,49.0,-100.00,SE,125,6.0,9.0,99,-99.99,,,-99.99,,2013-07-28 07:43:00,
2013-07-28 07:53:00,49.0,49.0,-100.00,SE,125,6.0,8.0,99,-99.99,,,-99.99,,2013-07-28 07:53:00,
2013-07-28 08:02:00,50.0,50.0,-100.00,SSE,150,7.0,8.0,99,-99.99,,,-99.99,,2013-07-28 08:02:00,
2013-07-28 08:12:00,50.0,50.0,-100.00,SSE,150,7.0,10.0,99,-99.99,,,-99.99,,2013-07-28 08:12:00,
2013-07-28 08:42:00,50.0,50.0,-100.00,SSE,165,6.0,11.0,99,-99.99,,,-99.99,,2013-07-28 08:42:00,
2013-07-28 09:02:00,51.0,51.0,-100.00,SSE,165,9.0,12.0,99,-99.99,,,-99.99,,2013-07-28 09:02:00,
2013-07-28 09:12:00,51.0,51.0,-100.00,South,170,8.0,12.0,99,-99.99,,,-99.99,,2013-07-28 09:12:00,
2013-07-28 09:43:00,51.0,51.0,-100.00,South,185,6.0,11.0,99,-99.99,,,-99.99,,2013-07-28 09:43:00,
2013-07-28 10:02:00,51.0,51.0,-100.00,South,190,7.0,10.0,99,-99.99,,,-99.99,,2013-07-28 10:02:00,
2013-07-28 10:42:00,51.0,51.0,-100.00,SSW,200,7.0,10.0,99,-99.99,,,-99.99,,2013-07-28 10:42:00,
2013-07-28 10:52:00,51.0,51.0,-100.00,South,190,6.0,11.0,99,-99.99,,,-99.99,,2013-07-28 10:52:00,
2013-07-28 11:33:00,51.0,51.0,-100.00,SSW,200,8.0,9.0,99,-99.99,,,-99.99,,2013-07-28 11:33:00,
2013-07-28 11:43:00,51.0,51.0,-100.00,SSW,210,7.0,9.0,99,-99.99,,,-99.99,,2013-07-28 11:43:00,
2013-07-28 11:53:00,51.0,51.0,-100.00,SW,220,6.0,9.0,99,-99.99,,,-99.99,,2013-07-28 11:53:00,
2013-07-28 12:02:00,51.0,51.0,-100.00,SSW,205,7.0,8.0,99,-99.99,,,-99.99,,2013-07-28 12:02:00,
2013-07-28 12:33:00,51.0,51.0,-100.00,SW,215,6.0,7.0,99,-99.99,,,-99.99,,2013-07-28 12:33:00,
2013-07-28 12:43:00,51.0,51.0,-100.00,SW,215,4.0,7.0,99,-99.99,,,-99.99,,2013-07-28 12:43:00,
2013-07-28 13:02:00,51.0,51.0,-100.00,SSW,210,4.0,6.0,99,-99.99,,,-99.99,,2013-07-28 13:02:00,
2013-07-28 13:12:00,51.0,51.0,-100.00,SW,220,4.0,7.0,99,-99.99,,,-99.99,,2013-07-28 13:12:00,
2013-07-28 13:43:00,52.0,52.0,-100.00,SW,220,6.0,6.0,99,-99.99,,,-99.99,,2013-07-28 13:43:00,
2013-07-28 14:02:00,52.0,52.0,-100.00,SW,220,5.0,6.0,99,-99.99,,,-99.99,,2013-07-28 14:02:00,
2013-07-28 14:43:00,54.0,54.0,-100.00,WSW,245,11.0,14.0,99,-99.99,,,-99.99,,2013-07-28 14:43:00,
2013-07-28 15:02:00,53.0,53.0,-100.00,WSW,245,11.0,14.0,98,-99.99,,,-99.99,,2013-07-28 15:02:00,
2013-07-28 15:12:00,53.0,52.0,-100.00,WSW,245,11.0,17.0,97,-99.99,,,-99.99,,2013-07-28 15:12:00,
2013-07-28 15:43:00,53.0,53.0,-100.00,WSW,245,12.0,16.0,97,-99.99,,,-99.99,,2013-07-28 15:43:00,
2013-07-28 16:02:00,53.0,52.0,-100.00,WSW,240,11.0,14.0,98,-99.99,,,-99.99,,2013-07-28 16:02:00,
2013-07-28 16:12:00,52.0,52.0,-100.00,WSW,255,9.0,14.0,99,-99.99,,,-99.99,,2013-07-28 16:12:00,
2013-07-28 16:43:00,53.0,53.0,-100.00,West,265,9.0,12.0,99,-99.99,,,-99.99,,2013-07-28 16:43:00,
2013-07-28 17:02:00,54.0,54.0,-100.00,West,260,9.0,11.0,97,-99.99,,,-99.99,,2013-07-28 17:02:00,
2013-07-28 17:43:00,56.0,53.0,-100.00,WSW,250,7.0,14.0,87,-99.99,,,-99.99,,2013-07-28 17:43:00,
2013-07-28 18:03:00,57.0,51.0,-100.00,West,265,7.0,11.0,78,-99.99,,,-99.99,,2013-07-28 18:03:00,
2013-07-28 18:12:00,58.0,51.0,-100.00,WSW,250,9.0,13.0,77,-99.99,,,-99.99,,2013-07-28 18:12:00,
2013-07-28 18:33:00,59.0,51.0,-100.00,WSW,255,9.0,13.0,75,-99.99,,,-99.99,,2013-07-28 18:33:00,
2013-07-28 18:43:00,58.0,51.0,-100.00,West,265,8.0,12.0,76,-99.99,,,-99.99,,2013-07-28 18:43:00,
2013-07-28 19:02:00,58.0,52.0,-100.00,NW,310,8.0,12.0,79,-99.99,,,-99.99,,2013-07-28 19:02:00,
2013-07-28 19:12:00,59.0,51.0,-100.00,WNW,290,10.0,15.0,74,-99.99,,,-99.99,,2013-07-28 19:12:00,
2013-07-28 19:43:00,58.0,52.0,-100.00,West,260,14.0,17.0,81,-99.99,,,-99.99,,2013-07-28 19:43:00,
2013-07-28 20:02:00,60.0,51.0,-100.00,West,260,12.0,16.0,72,-99.99,,,-99.99,,2013-07-28 20:02:00,
2013-07-28 20:12:00,60.0,50.0,-100.00,WSW,245,13.0,16.0,68,-99.99,,,-99.99,,2013-07-28 20:12:00,
2013-07-28 20:43:00,62.0,49.0,-100.00,WSW,255,11.0,17.0,61,-99.99,,,-99.99,,2013-07-28 20:43:00,
2013-07-28 21:33:00,64.0,47.0,-100.00,WSW,245,8.0,16.0,53,-99.99,,,-99.99,,2013-07-28 21:33:00,
2013-07-28 21:44:00,64.0,46.0,-100.00,WSW,245,8.0,14.0,52,-99.99,,,-99.99,,2013-07-28 21:44:00,
2013-07-28 22:02:00,63.0,47.0,-100.00,WNW,290,12.0,16.0,55,-99.99,,,-99.99,,2013-07-28 22:02:00,
2013-07-28 22:43:00,56.0,51.0,-100.00,NE,45,6.0,18.0,82,-99.99,,,-99.99,,2013-07-28 22:43:00,
2013-07-28 23:03:00,61.0,49.0,-100.00,North,350,5.0,9.0,64,-99.99,,,-99.99,,2013-07-28 23:03:00,